createdAt,value
2019-05-14T00:00:36.561Z,99.90
2019-05-14T00:01:43.390Z,99.90
2019-05-14T00:02:52.050Z,99.90
2019-05-14T00:03:59.390Z,99.90
2019-05-14T00:05:07.736Z,99.90
2019-05-14T00:06:14.793Z,99.90
2019-05-14T00:07:22.473Z,99.90
2019-05-14T00:08:31.436Z,99.90
2019-05-14T00:09:41.264Z,99.90
2019-05-14T00:10:47.956Z,99.90
2019-05-14T00:11:55.792Z,99.90
2019-05-14T00:13:02.619Z,99.90
2019-05-14T00:14:11.607Z,99.90
2019-05-14T00:15:21.498Z,99.90
2019-05-14T00:16:28.300Z,99.90
2019-05-14T00:17:35.861Z,99.90
2019-05-14T00:18:43.337Z,99.90
2019-05-14T00:20:05.880Z,99.90
2019-05-14T00:21:01.451Z,99.90
2019-05-14T00:22:07.702Z,99.90
2019-05-14T00:23:15.489Z,99.90
2019-05-14T00:24:22.250Z,99.90
2019-05-14T00:25:31.278Z,99.90
2019-05-14T00:26:38.592Z,99.90
2019-05-14T00:27:46.067Z,99.90
2019-05-14T00:28:52.817Z,99.90
2019-05-14T00:30:02.413Z,99.90
2019-05-14T00:31:11.967Z,99.90
2019-05-14T00:32:18.731Z,99.90
2019-05-14T00:33:25.954Z,99.90
2019-05-14T00:34:33.469Z,99.90
2019-05-14T00:35:41.324Z,99.90
2019-05-14T00:36:49.222Z,99.90
2019-05-14T00:37:55.964Z,99.90
2019-05-14T00:39:04.307Z,99.90
2019-05-14T00:40:11.923Z,99.90
2019-05-14T00:41:21.503Z,99.90
2019-05-14T00:42:28.520Z,99.90
2019-05-14T00:43:36.105Z,99.90
2019-05-14T00:44:54.478Z,99.90
2019-05-14T00:45:52.494Z,99.90
2019-05-14T00:46:59.235Z,99.90
2019-05-14T00:48:07.062Z,99.90
2019-05-14T00:49:14.129Z,99.90
2019-05-14T00:50:21.764Z,99.90
2019-05-14T00:51:28.934Z,99.90
2019-05-14T00:52:36.474Z,99.90
2019-05-14T00:53:43.230Z,99.90
2019-05-14T00:54:52.177Z,99.90
2019-05-14T00:56:01.908Z,99.90
2019-05-14T00:57:11.576Z,99.90
2019-05-14T00:58:17.832Z,99.90
2019-05-14T00:59:25.643Z,99.90
2019-05-14T01:00:32.739Z,99.90
2019-05-14T01:01:42.262Z,99.90
2019-05-14T01:02:48.703Z,99.90
2019-05-14T01:03:56.709Z,99.90
2019-05-14T01:05:04.471Z,99.90
2019-05-14T01:06:12.312Z,99.90
2019-05-14T01:07:21.137Z,99.90
2019-05-14T01:08:28.595Z,99.90
2019-05-14T01:09:35.391Z,99.90
2019-05-14T01:10:43.179Z,99.90
2019-05-14T01:11:51.262Z,99.90
2019-05-14T01:13:01.156Z,99.90
2019-05-14T01:14:07.771Z,99.90
2019-05-14T01:15:15.529Z,99.90
2019-05-14T01:16:22.520Z,99.90
2019-05-14T01:17:31.490Z,99.90
2019-05-14T01:18:38.578Z,99.90
2019-05-14T01:19:46.093Z,99.90
2019-05-14T01:20:53.247Z,99.90
2019-05-14T01:22:01.750Z,99.90
2019-05-14T01:23:08.679Z,99.90
2019-05-14T01:24:16.158Z,99.90
2019-05-14T01:25:23.865Z,99.90
2019-05-14T01:26:31.375Z,99.90
2019-05-14T01:27:38.550Z,99.90
2019-05-14T01:28:46.077Z,99.90
2019-05-14T01:29:53.026Z,99.90
2019-05-14T01:31:01.227Z,99.90
2019-05-14T01:32:08.724Z,99.90
2019-05-14T01:33:16.202Z,99.90
2019-05-14T01:34:22.967Z,99.90
2019-05-14T01:35:31.545Z,99.90
2019-05-14T01:36:41.190Z,99.90
2019-05-14T01:37:48.437Z,99.90
2019-05-14T01:38:55.626Z,99.90
2019-05-14T01:40:03.739Z,99.90
2019-05-14T01:41:11.820Z,99.90
2019-05-14T01:42:21.613Z,99.90
2019-05-14T01:43:28.708Z,99.90
2019-05-14T01:44:37.113Z,99.90
2019-05-14T01:45:44.221Z,99.90
2019-05-14T01:46:52.008Z,99.90
2019-05-14T01:48:00.999Z,99.90
2019-05-14T01:49:07.935Z,99.90
2019-05-14T01:50:15.757Z,99.90
2019-05-14T01:51:23.386Z,99.90
2019-05-14T01:52:31.801Z,99.90
2019-05-14T01:53:41.490Z,99.90
2019-05-14T01:54:47.893Z,99.90
2019-05-14T01:55:55.500Z,99.90
2019-05-14T01:57:02.327Z,99.90
2019-05-14T01:58:11.498Z,99.90
2019-05-14T01:59:18.482Z,99.90
2019-05-14T02:00:26.571Z,99.90
2019-05-14T02:01:34.269Z,99.90
2019-05-14T02:02:41.969Z,99.90
2019-05-14T02:03:48.767Z,99.90
2019-05-14T02:04:56.321Z,99.90
2019-05-14T02:06:03.077Z,99.90
2019-05-14T02:07:11.568Z,99.90
2019-05-14T02:08:21.298Z,99.90
2019-05-14T02:09:28.521Z,99.90
2019-05-14T02:10:35.267Z,99.90
2019-05-14T02:11:43.095Z,99.90
2019-05-14T02:12:51.600Z,99.90
2019-05-14T02:13:59.243Z,99.90
2019-05-14T02:15:06.247Z,99.90
2019-05-14T02:16:14.089Z,99.90
2019-05-14T02:17:21.413Z,99.90
2019-05-14T02:18:31.128Z,99.90
2019-05-14T02:19:38.173Z,99.90
2019-05-14T02:20:46.573Z,99.90
2019-05-14T02:21:53.334Z,99.90
2019-05-14T02:23:01.603Z,99.90
2019-05-14T02:24:08.590Z,99.90
2019-05-14T02:25:16.666Z,99.90
2019-05-14T02:26:23.767Z,99.90
2019-05-14T02:27:34.888Z,99.90
2019-05-14T02:28:42.006Z,99.90
2019-05-14T02:29:51.660Z,99.90
2019-05-14T02:31:02.748Z,99.90
2019-05-14T02:32:10.433Z,99.90
2019-05-14T02:33:19.096Z,99.90
2019-05-14T02:34:25.540Z,99.90
2019-05-14T02:35:32.331Z,99.90
2019-05-14T02:36:40.293Z,99.90
2019-05-14T02:37:50.211Z,99.90
2019-05-14T02:39:00.120Z,99.90
2019-05-14T02:40:09.617Z,99.90
2019-05-14T02:41:19.264Z,99.90
2019-05-14T02:42:24.439Z,99.90
2019-05-14T02:43:32.033Z,99.90
2019-05-14T02:44:40.904Z,99.90
2019-05-14T02:46:02.123Z,99.90
2019-05-14T02:46:59.183Z,99.90
2019-05-14T02:48:09.441Z,99.90
2019-05-14T02:49:14.681Z,99.90
2019-05-14T02:50:22.566Z,99.90
2019-05-14T02:51:30.183Z,99.90
2019-05-14T02:52:40.191Z,99.90
2019-05-14T02:53:49.585Z,99.90
2019-05-14T02:54:55.901Z,99.90
2019-05-14T02:56:02.789Z,99.90
2019-05-14T02:57:10.995Z,99.90
2019-05-14T02:58:20.622Z,99.90
2019-05-14T02:59:30.177Z,99.90
2019-05-14T03:00:35.896Z,99.90
2019-05-14T03:01:43.363Z,99.90
2019-05-14T03:02:50.124Z,99.90
2019-05-14T03:03:59.868Z,99.90
2019-05-14T03:05:09.539Z,99.90
2019-05-14T03:06:16.033Z,99.90
2019-05-14T03:07:22.871Z,99.90
2019-05-14T03:08:31.149Z,99.90
2019-05-14T03:09:40.303Z,99.90
2019-05-14T03:10:50.209Z,99.90
2019-05-14T03:11:59.310Z,99.90
2019-05-14T03:13:05.742Z,99.90
2019-05-14T03:14:12.491Z,99.90
2019-05-14T03:15:20.338Z,99.90
2019-05-14T03:16:32.584Z,99.90
2019-05-14T03:17:40.047Z,99.90
2019-05-14T03:18:45.742Z,99.90
2019-05-14T03:19:53.435Z,99.90
2019-05-14T03:21:01.217Z,99.90
2019-05-14T03:22:10.116Z,99.90
2019-05-14T03:23:19.629Z,99.90
2019-05-14T03:24:28.860Z,99.90
2019-05-14T03:25:35.432Z,99.90
2019-05-14T03:26:42.941Z,99.90
2019-05-14T03:27:50.351Z,99.90
2019-05-14T03:29:00.093Z,99.90
2019-05-14T03:30:12.650Z,99.90
2019-05-14T03:31:22.135Z,99.90
2019-05-14T03:32:25.568Z,99.90
2019-05-14T03:33:34.429Z,99.90
2019-05-14T03:34:43.767Z,99.90
2019-05-14T03:35:58.851Z,99.90
2019-05-14T03:37:03.171Z,99.90
2019-05-14T03:38:09.829Z,99.90
2019-05-14T03:39:19.112Z,99.90
2019-05-14T03:40:29.157Z,99.90
2019-05-14T03:41:34.678Z,99.90
2019-05-14T03:42:42.577Z,99.90
2019-05-14T03:43:49.730Z,99.90
2019-05-14T03:44:59.770Z,99.90
2019-05-14T03:46:09.467Z,99.90
2019-05-14T03:47:19.386Z,99.90
2019-05-14T03:48:25.098Z,99.90
2019-05-14T03:49:32.886Z,99.90
2019-05-14T03:50:39.981Z,99.90
2019-05-14T03:51:49.725Z,99.90
2019-05-14T03:52:59.485Z,99.90
2019-05-14T03:54:11.333Z,99.90
2019-05-14T03:55:14.723Z,99.90
2019-05-14T03:56:22.527Z,99.90
2019-05-14T03:57:29.430Z,99.90
2019-05-14T03:58:39.315Z,99.90
2019-05-14T03:59:49.598Z,99.90
2019-05-14T04:01:03.030Z,99.90
2019-05-14T04:02:11.739Z,99.90
2019-05-14T04:03:20.000Z,99.90
2019-05-14T04:04:29.874Z,99.90
2019-05-14T04:05:40.070Z,99.90
2019-05-14T04:06:49.612Z,99.90
2019-05-14T04:08:00.096Z,99.90
2019-05-14T04:09:09.649Z,99.90
2019-05-14T04:10:19.493Z,99.90
2019-05-14T04:11:29.624Z,99.90
2019-05-14T04:12:40.488Z,99.90
2019-05-14T04:13:52.505Z,99.90
2019-05-14T04:15:04.348Z,99.90
2019-05-14T04:16:14.707Z,99.90
2019-05-14T04:17:33.637Z,99.90
2019-05-14T04:18:40.186Z,99.90
2019-05-14T04:19:51.168Z,99.90
2019-05-14T04:20:59.808Z,99.90
2019-05-14T04:22:10.238Z,99.90
2019-05-14T04:23:19.850Z,99.90
2019-05-14T04:24:36.443Z,99.90
2019-05-14T04:25:42.294Z,99.90
2019-05-14T04:27:02.238Z,99.90
2019-05-14T04:28:04.479Z,99.90
2019-05-14T04:29:19.435Z,99.90
2019-05-14T04:30:24.697Z,99.90
2019-05-14T04:31:34.376Z,99.90
2019-05-14T04:32:43.539Z,99.90
2019-05-14T04:33:53.211Z,99.90
2019-05-14T04:35:01.632Z,99.90
2019-05-14T04:36:10.100Z,99.90
2019-05-14T04:37:20.047Z,99.90
2019-05-14T04:38:29.947Z,99.90
2019-05-14T04:39:39.271Z,99.90
2019-05-14T04:40:45.775Z,99.90
2019-05-14T04:41:52.961Z,99.90
2019-05-14T04:43:00.490Z,99.90
2019-05-14T04:44:09.739Z,99.90
2019-05-14T04:45:19.684Z,99.90
2019-05-14T04:46:26.108Z,99.90
2019-05-14T04:47:37.590Z,99.90
2019-05-14T04:48:43.844Z,99.90
2019-05-14T04:49:52.134Z,99.90
2019-05-14T04:51:00.547Z,99.90
2019-05-14T04:52:10.116Z,99.90
2019-05-14T04:53:19.535Z,99.90
2019-05-14T04:54:29.874Z,99.90
2019-05-14T04:55:34.854Z,99.90
2019-05-14T04:56:42.798Z,99.90
2019-05-14T04:57:50.400Z,99.90
2019-05-14T04:58:59.711Z,99.90
2019-05-14T05:00:07.084Z,99.90
2019-05-14T05:01:16.364Z,99.90
2019-05-14T05:02:24.850Z,99.90
2019-05-14T05:03:32.661Z,99.90
2019-05-14T05:04:41.093Z,99.90
2019-05-14T05:05:49.940Z,99.90
2019-05-14T05:06:59.287Z,99.90
2019-05-14T05:08:09.025Z,99.90
2019-05-14T05:09:14.977Z,99.90
2019-05-14T05:10:22.507Z,99.90
2019-05-14T05:11:29.528Z,99.90
2019-05-14T05:12:38.715Z,99.90
2019-05-14T05:13:48.717Z,99.90
2019-05-14T05:14:58.465Z,99.90
2019-05-14T05:16:04.529Z,99.90
2019-05-14T05:17:12.833Z,99.90
2019-05-14T05:18:19.790Z,99.90
2019-05-14T05:19:29.053Z,99.90
2019-05-14T05:20:39.240Z,99.90
2019-05-14T05:21:48.097Z,99.90
2019-05-14T05:22:55.088Z,99.90
2019-05-14T05:24:02.564Z,99.90
2019-05-14T05:25:09.527Z,99.90
2019-05-14T05:26:18.451Z,99.90
2019-05-14T05:27:25.444Z,99.90
2019-05-14T05:28:33.140Z,99.90
2019-05-14T05:29:41.839Z,99.90
2019-05-14T05:30:49.470Z,99.90
2019-05-14T05:31:59.014Z,99.90
2019-05-14T05:33:06.064Z,99.90
2019-05-14T05:34:12.948Z,99.90
2019-05-14T05:35:20.833Z,99.90
2019-05-14T05:36:29.026Z,99.90
2019-05-14T05:37:38.476Z,99.90
2019-05-14T05:38:45.445Z,99.90
2019-05-14T05:39:52.976Z,99.90
2019-05-14T05:41:00.481Z,99.90
2019-05-14T05:42:09.381Z,99.90
2019-05-14T05:43:19.009Z,99.90
2019-05-14T05:44:28.535Z,99.90
2019-05-14T05:45:34.901Z,99.90
2019-05-14T05:46:43.283Z,99.90
2019-05-14T05:47:57.770Z,99.90
2019-05-14T05:49:00.417Z,99.90
2019-05-14T05:50:08.807Z,99.90
2019-05-14T05:51:18.665Z,99.90
2019-05-14T05:52:25.157Z,99.90
2019-05-14T05:53:33.448Z,99.90
2019-05-14T05:54:40.725Z,99.90
2019-05-14T05:55:49.208Z,99.90
2019-05-14T05:56:58.140Z,99.90
2019-05-14T05:58:05.888Z,99.90
2019-05-14T05:59:13.032Z,99.90
2019-05-14T06:00:53.741Z,99.90
2019-05-14T06:02:00.818Z,99.90
2019-05-14T06:03:10.687Z,99.90
2019-05-14T06:04:18.255Z,99.90
2019-05-14T06:05:25.942Z,99.90
2019-05-14T06:06:32.986Z,99.90
2019-05-14T06:07:40.479Z,99.90
2019-05-14T06:08:49.173Z,99.90
2019-05-14T06:09:58.637Z,99.90
2019-05-14T06:11:05.314Z,99.90
2019-05-14T06:12:12.999Z,99.90
2019-05-14T06:13:19.836Z,99.90
2019-05-14T06:14:29.170Z,99.90
2019-05-14T06:15:45.676Z,99.90
2019-05-14T06:16:45.505Z,99.90
2019-05-14T06:17:52.565Z,99.90
2019-05-14T06:19:00.445Z,99.90
2019-05-14T06:20:08.611Z,99.90
2019-05-14T06:21:18.710Z,99.90
2019-05-14T06:22:25.083Z,99.90
2019-05-14T06:23:32.991Z,99.90
2019-05-14T06:24:39.780Z,99.90
2019-05-14T06:25:49.134Z,99.90
2019-05-14T06:26:58.375Z,99.90
2019-05-14T06:28:04.985Z,99.90
2019-05-14T06:29:12.153Z,99.90
2019-05-14T06:30:36.251Z,99.90
2019-05-14T06:31:43.041Z,99.90
2019-05-14T06:32:51.322Z,99.90
2019-05-14T06:33:59.124Z,99.90
2019-05-14T06:35:08.795Z,99.90
2019-05-14T06:36:19.110Z,99.90
2019-05-14T06:37:25.221Z,99.90
2019-05-14T06:38:32.739Z,99.90
2019-05-14T06:39:40.331Z,99.90
2019-05-14T06:40:48.918Z,99.90
2019-05-14T06:41:58.520Z,99.90
2019-05-14T06:43:05.151Z,99.90
2019-05-14T06:44:12.623Z,99.90
2019-05-14T06:45:20.127Z,99.90
2019-05-14T06:46:28.409Z,99.90
2019-05-14T06:47:35.316Z,99.90
2019-05-14T06:48:42.798Z,99.90
2019-05-14T06:49:49.553Z,99.90
2019-05-14T06:50:58.298Z,99.90
2019-05-14T06:52:08.454Z,99.90
2019-05-14T06:53:15.313Z,99.90
2019-05-14T06:54:22.044Z,99.90
2019-05-14T06:55:29.523Z,99.90
2019-05-14T06:56:38.518Z,99.90
2019-05-14T06:57:47.883Z,99.90
2019-05-14T06:58:54.074Z,99.90
2019-05-14T07:00:01.911Z,99.90
2019-05-14T07:01:09.627Z,99.90
2019-05-14T07:02:19.397Z,99.90
2019-05-14T07:03:28.104Z,99.90
2019-05-14T07:04:39.210Z,99.90
2019-05-14T07:05:45.516Z,99.90
2019-05-14T07:06:53.001Z,99.90
2019-05-14T07:07:59.887Z,99.90
2019-05-14T07:09:09.275Z,99.90
2019-05-14T07:10:19.450Z,99.90
2019-05-14T07:11:26.010Z,99.90
2019-05-14T07:12:33.064Z,99.90
2019-05-14T07:13:40.943Z,99.90
2019-05-14T07:14:48.241Z,99.90
2019-05-14T07:15:58.335Z,99.90
2019-05-14T07:17:04.914Z,99.90
2019-05-14T07:18:12.393Z,99.90
2019-05-14T07:19:19.336Z,99.90
2019-05-14T07:20:28.306Z,99.90
2019-05-14T07:21:35.433Z,99.90
2019-05-14T07:22:43.484Z,99.90
2019-05-14T07:23:50.339Z,99.90
2019-05-14T07:24:58.673Z,99.90
2019-05-14T07:26:08.126Z,99.90
2019-05-14T07:27:15.226Z,99.90
2019-05-14T07:28:22.283Z,99.90
2019-05-14T07:29:29.778Z,99.90
2019-05-14T07:30:39.325Z,99.90
2019-05-14T07:31:48.740Z,99.90
2019-05-14T07:32:55.003Z,99.90
2019-05-14T07:34:02.573Z,99.90
2019-05-14T07:35:11.240Z,99.90
2019-05-14T07:36:19.411Z,99.90
2019-05-14T07:37:28.434Z,99.90
2019-05-14T07:38:35.671Z,99.90
2019-05-14T07:39:42.776Z,99.90
2019-05-14T07:40:51.123Z,99.90
2019-05-14T07:41:59.127Z,99.90
2019-05-14T07:43:08.988Z,99.90
2019-05-14T07:44:18.198Z,99.90
2019-05-14T07:45:25.708Z,99.90
2019-05-14T07:46:32.740Z,99.90
2019-05-14T07:47:40.258Z,99.90
2019-05-14T07:49:03.982Z,99.90
2019-05-14T07:49:58.238Z,99.90
2019-05-14T07:51:05.217Z,99.90
2019-05-14T07:52:13.045Z,99.90
2019-05-14T07:53:19.766Z,99.90
2019-05-14T07:54:28.301Z,99.90
2019-05-14T07:55:35.307Z,99.90
2019-05-14T07:56:43.603Z,99.90
2019-05-14T07:57:50.668Z,99.90
2019-05-14T07:59:01.930Z,99.90
2019-05-14T08:00:08.168Z,99.90
2019-05-14T08:01:15.751Z,99.90
2019-05-14T08:02:22.543Z,99.90
2019-05-14T08:03:30.402Z,99.90
2019-05-14T08:04:38.116Z,99.90
2019-05-14T08:05:48.228Z,99.90
2019-05-14T08:06:54.991Z,99.90
2019-05-14T08:08:02.793Z,99.90
2019-05-14T08:09:10.900Z,99.90
2019-05-14T08:10:20.041Z,99.90
2019-05-14T08:11:28.092Z,99.90
2019-05-14T08:12:36.012Z,99.90
2019-05-14T08:13:43.072Z,99.90
2019-05-14T08:15:11.030Z,99.90
2019-05-14T08:16:00.015Z,99.90
2019-05-14T08:17:08.644Z,99.90
2019-05-14T08:18:15.635Z,99.90
2019-05-14T08:19:27.127Z,99.90
2019-05-14T08:20:31.609Z,99.90
2019-05-14T08:21:39.617Z,99.90
2019-05-14T08:22:48.839Z,99.90
2019-05-14T08:23:59.121Z,99.90
2019-05-14T08:25:05.150Z,99.90
2019-05-14T08:26:12.941Z,99.90
2019-05-14T08:27:19.712Z,99.90
2019-05-14T08:28:28.993Z,99.90
2019-05-14T08:29:39.117Z,99.90
2019-05-14T08:30:44.906Z,99.90
2019-05-14T08:31:51.684Z,99.90
2019-05-14T08:32:59.262Z,99.90
2019-05-14T08:34:09.029Z,99.90
2019-05-14T08:35:18.414Z,99.90
2019-05-14T08:36:24.511Z,99.90
2019-05-14T08:37:32.532Z,99.90
2019-05-14T08:38:39.631Z,99.90
2019-05-14T08:39:48.602Z,99.90
2019-05-14T08:40:55.663Z,99.90
2019-05-14T08:42:04.400Z,99.90
2019-05-14T08:43:11.483Z,99.90
2019-05-14T08:44:19.867Z,99.90
2019-05-14T08:45:28.373Z,99.90
2019-05-14T08:46:36.129Z,99.90
2019-05-14T08:47:42.976Z,99.90
2019-05-14T08:48:50.455Z,99.90
2019-05-14T08:49:59.949Z,99.90
2019-05-14T08:51:09.117Z,99.90
2019-05-14T08:52:16.229Z,99.90
2019-05-14T08:53:24.106Z,99.90
2019-05-14T08:54:30.838Z,99.90
2019-05-14T08:55:38.473Z,99.90
2019-05-14T08:56:45.225Z,99.90
2019-05-14T08:57:52.754Z,99.90
2019-05-14T08:58:59.539Z,99.90
2019-05-14T09:00:13.673Z,99.90
2019-05-14T09:01:19.405Z,99.90
2019-05-14T09:02:28.497Z,99.90
2019-05-14T09:03:34.494Z,99.90
2019-05-14T09:04:43.774Z,99.90
2019-05-14T09:05:51.297Z,99.90
2019-05-14T09:06:58.796Z,99.90
2019-05-14T09:08:05.961Z,99.90
2019-05-14T09:09:14.098Z,99.90
2019-05-14T09:10:21.124Z,99.90
2019-05-14T09:11:35.411Z,99.90
2019-05-14T09:12:38.889Z,99.90
2019-05-14T09:13:49.057Z,99.90
2019-05-14T09:14:55.690Z,99.90
2019-05-14T09:16:04.080Z,99.90
2019-05-14T09:17:14.659Z,99.90
2019-05-14T09:18:20.703Z,99.90
2019-05-14T09:19:28.730Z,99.90
2019-05-14T09:20:38.144Z,99.90
2019-05-14T09:21:45.014Z,99.90
2019-05-14T09:22:53.240Z,99.90
2019-05-14T09:23:59.981Z,99.90
2019-05-14T09:25:08.495Z,99.90
2019-05-14T09:26:15.379Z,99.90
2019-05-14T09:27:23.453Z,99.90
2019-05-14T09:28:30.564Z,99.90
2019-05-14T09:29:39.468Z,99.90
2019-05-14T09:30:48.702Z,99.90
2019-05-14T09:31:58.903Z,99.90
2019-05-14T09:33:08.538Z,99.90
2019-05-14T09:34:19.442Z,99.90
2019-05-14T09:35:25.656Z,99.90
2019-05-14T09:36:33.225Z,99.90
2019-05-14T09:37:40.081Z,99.90
2019-05-14T09:38:49.148Z,99.90
2019-05-14T09:39:58.420Z,99.90
2019-05-14T09:41:14.217Z,99.90
2019-05-14T09:42:14.158Z,99.90
2019-05-14T09:43:21.620Z,99.90
2019-05-14T09:44:29.407Z,99.90
2019-05-14T09:45:38.811Z,99.90
2019-05-14T09:46:45.671Z,99.90
2019-05-14T09:47:53.148Z,99.90
2019-05-14T09:48:59.893Z,99.90
2019-05-14T09:50:29.248Z,99.90
2019-05-14T09:51:38.135Z,99.90
2019-05-14T09:52:45.981Z,99.90
2019-05-14T09:53:53.084Z,99.90
2019-05-14T09:55:00.956Z,99.90
2019-05-14T09:56:09.123Z,99.90
2019-05-14T09:57:18.908Z,99.90
2019-05-14T09:58:28.011Z,99.90
2019-05-14T09:59:35.159Z,99.90
2019-05-14T10:00:41.879Z,99.90
2019-05-14T10:01:50.694Z,99.90
2019-05-14T10:02:59.657Z,99.90
2019-05-14T10:04:09.189Z,99.90
2019-05-14T10:05:19.485Z,99.90
2019-05-14T10:06:28.430Z,99.90
2019-05-14T10:07:35.858Z,99.90
2019-05-14T10:08:43.741Z,99.90
2019-05-14T10:09:50.471Z,99.90
2019-05-14T10:11:00.258Z,99.90
2019-05-14T10:12:08.912Z,99.90
2019-05-14T10:13:16.454Z,99.90
2019-05-14T10:14:23.194Z,99.90
2019-05-14T10:15:30.661Z,99.90
2019-05-14T10:16:38.668Z,99.90
2019-05-14T10:17:49.797Z,99.90
2019-05-14T10:18:55.124Z,99.90
2019-05-14T10:20:02.596Z,99.90
2019-05-14T10:21:09.696Z,99.90
2019-05-14T10:22:19.780Z,99.90
2019-05-14T10:23:28.153Z,99.90
2019-05-14T10:24:35.334Z,99.90
2019-05-14T10:25:42.597Z,99.90
2019-05-14T10:26:50.288Z,99.90
2019-05-14T10:27:59.040Z,99.90
2019-05-14T10:29:08.520Z,99.90
2019-05-14T10:30:17.979Z,99.90
2019-05-14T10:31:25.062Z,99.90
2019-05-14T10:32:32.238Z,99.90
2019-05-14T10:33:39.814Z,99.90
2019-05-14T10:34:48.548Z,99.90
2019-05-14T10:35:58.744Z,99.90
2019-05-14T10:37:04.989Z,99.90
2019-05-14T10:38:13.204Z,99.90
2019-05-14T10:39:20.657Z,99.90
2019-05-14T10:40:29.220Z,99.90
2019-05-14T10:41:38.519Z,99.90
2019-05-14T10:42:49.227Z,99.90
2019-05-14T10:43:54.582Z,99.90
2019-05-14T10:45:02.194Z,99.90
2019-05-14T10:46:09.289Z,99.90
2019-05-14T10:47:18.830Z,99.90
2019-05-14T10:48:25.575Z,99.90
2019-05-14T10:49:33.540Z,99.90
2019-05-14T10:50:56.130Z,99.90
2019-05-14T10:51:49.931Z,99.90
2019-05-14T10:52:59.850Z,99.90
2019-05-14T10:54:21.240Z,99.90
2019-05-14T10:55:18.419Z,99.90
2019-05-14T10:56:26.076Z,99.90
2019-05-14T10:57:32.815Z,99.90
2019-05-14T10:58:40.350Z,99.90
2019-05-14T10:59:47.194Z,99.90
2019-05-14T11:00:55.090Z,99.90
2019-05-14T11:02:02.158Z,99.90
2019-05-14T11:03:09.649Z,99.90
2019-05-14T11:04:18.822Z,99.90
2019-05-14T11:05:27.997Z,99.90
2019-05-14T11:06:34.637Z,99.90
2019-05-14T11:07:42.489Z,99.90
2019-05-14T11:08:49.560Z,99.90
2019-05-14T11:09:57.096Z,99.90
2019-05-14T11:11:05.123Z,99.90
2019-05-14T11:12:13.073Z,99.90
2019-05-14T11:13:20.245Z,99.90
2019-05-14T11:14:31.822Z,99.90
2019-05-14T11:15:39.266Z,99.90
2019-05-14T11:16:45.734Z,99.90
2019-05-14T11:17:52.473Z,99.90
2019-05-14T11:18:59.955Z,99.90
2019-05-14T11:20:09.061Z,99.90
2019-05-14T11:21:23.055Z,99.90
2019-05-14T11:22:25.357Z,99.90
2019-05-14T11:23:33.167Z,99.90
2019-05-14T11:24:40.021Z,99.90
2019-05-14T11:25:48.714Z,99.90
2019-05-14T11:26:55.687Z,99.90
2019-05-14T11:28:03.625Z,99.90
2019-05-14T11:29:10.701Z,99.90
2019-05-14T11:30:19.461Z,99.90
2019-05-14T11:31:26.311Z,99.90
2019-05-14T11:32:34.616Z,99.90
2019-05-14T11:33:41.319Z,99.90
2019-05-14T11:34:48.878Z,99.90
2019-05-14T11:35:58.324Z,99.90
2019-05-14T11:37:08.371Z,99.90
2019-05-14T11:38:28.359Z,99.90
2019-05-14T11:39:23.927Z,99.90
2019-05-14T11:40:30.645Z,99.90
2019-05-14T11:41:39.062Z,99.90
2019-05-14T11:42:49.296Z,99.90
2019-05-14T11:43:55.750Z,99.90
2019-05-14T11:45:02.489Z,99.90
2019-05-14T11:46:10.093Z,99.90
2019-05-14T11:47:18.159Z,99.90
2019-05-14T11:48:25.738Z,99.90
2019-05-14T11:49:32.705Z,99.90
2019-05-14T11:50:40.393Z,99.90
2019-05-14T11:52:00.919Z,99.90
2019-05-14T11:52:58.538Z,99.90
2019-05-14T11:54:09.247Z,99.90
2019-05-14T11:55:18.647Z,99.90
2019-05-14T11:56:24.867Z,99.90
2019-05-14T11:57:32.335Z,99.90
2019-05-14T11:58:39.520Z,99.90
2019-05-14T11:59:46.987Z,99.90
2019-05-14T12:00:53.807Z,99.90
2019-05-14T12:02:01.295Z,99.90
2019-05-14T12:03:09.222Z,99.90
2019-05-14T12:04:18.818Z,99.90
2019-05-14T12:05:25.821Z,99.90
2019-05-14T12:06:33.777Z,99.90
2019-05-14T12:07:40.544Z,99.90
2019-05-14T12:08:48.038Z,99.90
2019-05-14T12:09:55.104Z,99.90
2019-05-14T12:11:02.601Z,99.90
2019-05-14T12:12:12.345Z,99.90
2019-05-14T12:13:19.455Z,99.90
2019-05-14T12:14:26.305Z,99.90
2019-05-14T12:15:34.020Z,99.90
2019-05-14T12:16:40.903Z,99.90
2019-05-14T12:17:51.037Z,99.90
2019-05-14T12:18:59.073Z,99.90
2019-05-14T12:20:06.705Z,99.90
2019-05-14T12:21:13.459Z,99.90
2019-05-14T12:22:21.062Z,99.90
2019-05-14T12:23:29.824Z,99.90
2019-05-14T12:24:38.790Z,99.90
2019-05-14T12:25:48.897Z,99.90
2019-05-14T12:26:55.362Z,99.90
2019-05-14T12:28:02.177Z,99.90
2019-05-14T12:29:10.142Z,99.90
2019-05-14T12:30:19.693Z,99.90
2019-05-14T12:31:28.967Z,99.90
2019-05-14T12:32:39.191Z,99.90
2019-05-14T12:33:45.665Z,99.90
2019-05-14T12:34:53.115Z,99.90
2019-05-14T12:36:00.819Z,99.90
2019-05-14T12:37:09.130Z,99.90
2019-05-14T12:38:18.759Z,99.90
2019-05-14T12:39:25.756Z,99.90
2019-05-14T12:40:33.289Z,99.90
2019-05-14T12:41:40.024Z,99.90
2019-05-14T12:42:49.616Z,99.90
2019-05-14T12:43:58.796Z,99.90
2019-05-14T12:45:06.099Z,99.90
2019-05-14T12:46:13.247Z,99.90
2019-05-14T12:47:20.760Z,99.90
2019-05-14T12:48:29.792Z,99.90
2019-05-14T12:49:38.901Z,99.90
2019-05-14T12:50:48.656Z,99.90
2019-05-14T12:51:55.041Z,99.90
2019-05-14T12:53:02.181Z,99.90
2019-05-14T12:54:09.674Z,99.90
2019-05-14T12:55:19.786Z,99.90
2019-05-14T12:56:29.436Z,99.90
2019-05-14T12:57:39.025Z,99.90
2019-05-14T12:58:46.044Z,99.90
2019-05-14T12:59:53.066Z,99.90
2019-05-14T13:01:01.246Z,99.90
2019-05-14T13:02:09.715Z,99.90
2019-05-14T13:03:19.078Z,99.90
2019-05-14T13:04:28.427Z,99.90
2019-05-14T13:05:35.564Z,99.90
2019-05-14T13:06:43.175Z,99.90
2019-05-14T13:07:51.300Z,99.90
2019-05-14T13:08:58.640Z,99.90
2019-05-14T13:10:08.982Z,99.90
2019-05-14T13:11:15.707Z,99.90
2019-05-14T13:12:23.222Z,99.90
2019-05-14T13:13:30.377Z,99.90
2019-05-14T13:14:39.539Z,99.90
2019-05-14T13:15:48.418Z,99.90
2019-05-14T13:16:56.211Z,99.90
2019-05-14T13:18:02.929Z,99.90
2019-05-14T13:19:10.841Z,99.90
2019-05-14T13:20:18.674Z,99.90
2019-05-14T13:21:28.765Z,99.90
2019-05-14T13:22:42.406Z,99.90
2019-05-14T13:23:44.754Z,99.90
2019-05-14T13:24:51.496Z,99.90
2019-05-14T13:25:59.611Z,99.90
2019-05-14T13:27:06.428Z,99.90
2019-05-14T13:28:14.363Z,99.90
2019-05-14T13:29:21.824Z,99.90
2019-05-14T13:30:29.944Z,99.90
2019-05-14T13:31:36.918Z,99.90
2019-05-14T13:32:44.462Z,99.90
2019-05-14T13:33:52.014Z,99.90
2019-05-14T13:35:00.216Z,99.90
2019-05-14T13:36:07.178Z,99.90
2019-05-14T13:37:14.989Z,99.90
2019-05-14T13:38:21.845Z,99.50
2019-05-14T13:39:29.299Z,99.90
2019-05-14T13:40:36.069Z,98.80
2019-05-14T13:41:43.683Z,98.80
2019-05-14T13:42:50.428Z,98.60
2019-05-14T13:43:58.712Z,98.10
2019-05-14T13:45:06.437Z,98.00
2019-05-14T13:46:15.205Z,97.40
2019-05-14T13:47:22.239Z,98.40
2019-05-14T13:48:30.134Z,99.10
2019-05-14T13:49:39.072Z,98.60
2019-05-14T13:50:48.966Z,98.40
2019-05-14T13:51:54.582Z,98.10
2019-05-14T13:53:09.407Z,98.40
2019-05-14T13:54:11.708Z,98.00
2019-05-14T13:55:19.672Z,98.40
2019-05-14T13:56:28.373Z,97.90
2019-05-14T13:57:39.485Z,98.60
2019-05-14T13:58:45.314Z,98.10
2019-05-14T13:59:52.790Z,98.00
2019-05-14T14:00:59.725Z,98.00
2019-05-14T14:02:09.857Z,98.30
2019-05-14T14:03:19.658Z,98.40
2019-05-14T14:04:25.531Z,98.90
2019-05-14T14:05:32.279Z,99.10
2019-05-14T14:06:40.568Z,98.60
2019-05-14T14:07:48.628Z,98.90
2019-05-14T14:08:59.105Z,98.40
2019-05-14T14:10:05.445Z,97.80
2019-05-14T14:11:13.057Z,98.10
2019-05-14T14:12:20.288Z,98.00
2019-05-14T14:13:28.567Z,97.70
2019-05-14T14:14:38.594Z,96.90
2019-05-14T14:15:45.837Z,96.40
2019-05-14T14:16:52.556Z,96.20
2019-05-14T14:18:00.726Z,96.50
2019-05-14T14:19:08.742Z,96.10
2019-05-14T14:20:19.343Z,96.00
2019-05-14T14:21:25.559Z,96.70
2019-05-14T14:22:33.167Z,96.60
2019-05-14T14:23:39.979Z,97.10
2019-05-14T14:24:48.709Z,97.30
2019-05-14T14:25:59.289Z,97.70
2019-05-14T14:27:05.305Z,97.30
2019-05-14T14:28:12.420Z,96.90
2019-05-14T14:29:20.220Z,97.40
2019-05-14T14:30:28.533Z,96.70
2019-05-14T14:31:36.537Z,96.00
2019-05-14T14:32:43.330Z,96.30
2019-05-14T14:33:51.128Z,96.40
2019-05-14T14:34:58.969Z,96.30
2019-05-14T14:36:07.190Z,96.20
2019-05-14T14:37:14.130Z,96.20
2019-05-14T14:38:21.955Z,95.50